createdAt,value
2022-08-26T00:04:12.201Z,15.50
2022-08-26T00:14:18.805Z,14.80
2022-08-26T00:19:21.140Z,14.40
2022-08-26T00:24:23.650Z,15.40
2022-08-26T00:29:25.866Z,15.35
2022-08-26T00:34:28.663Z,15.18
2022-08-26T00:39:31.667Z,15.35
2022-08-26T00:44:34.307Z,15.10
2022-08-26T00:49:43.568Z,16.48
2022-08-26T00:55:06.949Z,17.17
2022-08-26T01:00:14.507Z,15.60
2022-08-26T01:05:18.367Z,15.52
2022-08-26T01:10:26.343Z,17.17
2022-08-26T01:15:37.478Z,18.20
2022-08-26T01:21:24.760Z,20.77
2022-08-26T01:26:34.780Z,24.67
2022-08-26T01:31:45.540Z,24.20
2022-08-26T01:36:56.711Z,24.10
2022-08-26T01:42:03.233Z,29.25
2022-08-26T01:47:06.853Z,33.63
2022-08-26T01:52:11.562Z,31.35
2022-08-26T01:57:19.014Z,31.10
2022-08-26T02:02:21.411Z,34.95
2022-08-26T02:07:26.826Z,41.53
2022-08-26T02:12:30.705Z,49.00
2022-08-26T02:17:45.845Z,47.58
2022-08-26T02:22:48.377Z,51.15
2022-08-26T02:27:51.643Z,55.00
2022-08-26T02:32:53.871Z,55.25
2022-08-26T02:37:56.624Z,57.57
2022-08-26T02:43:00.174Z,60.65
2022-08-26T02:48:15.593Z,58.30
2022-08-26T02:53:24.485Z,54.63
2022-08-26T02:58:27.358Z,52.42
2022-08-26T03:03:29.572Z,49.15
2022-08-26T03:08:32.663Z,46.50
2022-08-26T03:13:34.824Z,44.38
2022-08-26T03:18:37.260Z,41.27
2022-08-26T03:23:41.985Z,39.85
2022-08-26T03:28:44.911Z,38.92
2022-08-26T03:33:47.062Z,37.47
2022-08-26T03:38:51.721Z,35.28
2022-08-26T03:43:55.014Z,36.28
2022-08-26T03:49:01.339Z,36.65
2022-08-26T03:54:04.120Z,36.40
2022-08-26T03:59:07.681Z,38.35
2022-08-26T04:09:20.889Z,37.65
2022-08-26T04:14:25.536Z,36.30
2022-08-26T04:19:27.706Z,34.65
2022-08-26T04:24:29.901Z,36.03
2022-08-26T04:29:32.356Z,34.83
2022-08-26T04:34:36.364Z,35.10
2022-08-26T04:39:38.539Z,34.67
2022-08-26T04:44:40.730Z,33.08
2022-08-26T04:49:42.918Z,33.90
2022-08-26T04:54:45.098Z,34.15
2022-08-26T04:59:47.568Z,32.10
2022-08-26T05:04:51.948Z,32.03
2022-08-26T05:09:54.142Z,32.30
2022-08-26T05:14:56.812Z,32.95
2022-08-26T05:19:59.635Z,30.80
2022-08-26T05:25:02.037Z,32.50
2022-08-26T05:30:04.562Z,31.58
2022-08-26T05:35:08.996Z,28.75
2022-08-26T05:40:11.806Z,25.95
2022-08-26T05:50:16.216Z,25.15
2022-08-26T05:55:18.733Z,24.73
2022-08-26T06:00:20.895Z,23.83
2022-08-26T06:05:23.142Z,23.50
2022-08-26T06:10:33.134Z,22.95
2022-08-26T06:15:42.021Z,22.42
2022-08-26T06:20:49.529Z,20.80
2022-08-26T06:26:00.463Z,21.05
2022-08-26T06:31:03.595Z,20.08
2022-08-26T06:36:06.674Z,20.25
2022-08-26T06:41:09.125Z,19.33
2022-08-26T06:46:13.563Z,20.85
2022-08-26T06:51:23.680Z,20.55
2022-08-26T06:56:29.326Z,19.40
2022-08-26T07:01:35.558Z,20.02
2022-08-26T07:06:40.082Z,19.70
2022-08-26T07:11:42.273Z,18.67
2022-08-26T07:16:44.610Z,19.10
2022-08-26T07:21:46.872Z,17.73
2022-08-26T07:26:51.551Z,17.40
2022-08-26T07:31:53.904Z,17.00
2022-08-26T07:36:59.031Z,15.70
2022-08-26T07:42:07.535Z,16.27
2022-08-26T07:47:25.115Z,14.18
2022-08-26T07:52:30.219Z,14.43
2022-08-26T07:57:32.919Z,13.88
2022-08-26T08:02:37.077Z,11.75
2022-08-26T08:07:44.865Z,10.10
2022-08-26T08:12:48.425Z,10.23
2022-08-26T08:17:54.710Z,8.98
2022-08-26T08:23:03.469Z,9.07
2022-08-26T08:28:05.748Z,9.50
2022-08-26T08:38:44.954Z,9.95
2022-08-26T08:43:47.605Z,10.35
2022-08-26T08:48:55.805Z,11.80
2022-08-26T08:53:59.157Z,10.43
2022-08-26T08:59:20.745Z,10.95
2022-08-26T09:04:23.526Z,10.40
2022-08-26T09:14:34.055Z,9.40
2022-08-26T09:19:40.178Z,9.85
2022-08-26T09:24:48.491Z,9.23
2022-08-26T09:29:51.357Z,9.70
2022-08-26T09:35:00.976Z,10.15
2022-08-26T09:40:17.056Z,9.82
2022-08-26T09:45:28.097Z,9.02
2022-08-26T09:50:52.959Z,8.23
2022-08-26T09:56:25.847Z,9.18
2022-08-26T10:01:42.045Z,7.43
2022-08-26T10:07:03.420Z,7.97
2022-08-26T10:12:16.484Z,8.65
2022-08-26T10:17:40.619Z,8.70
2022-08-26T10:22:52.574Z,8.45
2022-08-26T10:28:03.396Z,8.90
2022-08-26T10:33:09.541Z,7.80
2022-08-26T10:38:15.893Z,7.93
2022-08-26T10:43:35.860Z,7.53
2022-08-26T10:48:49.382Z,6.15
2022-08-26T10:54:01.614Z,5.80
2022-08-26T10:59:17.522Z,3.95
2022-08-26T11:04:25.586Z,3.38
2022-08-26T11:09:46.487Z,3.88
2022-08-26T11:14:58.482Z,3.35
2022-08-26T11:20:03.948Z,4.15
2022-08-26T11:25:13.577Z,3.42
2022-08-26T11:30:15.663Z,3.25
2022-08-26T11:35:20.537Z,2.67
2022-08-26T11:40:31.868Z,2.90
2022-08-26T11:45:36.049Z,3.08
2022-08-26T11:50:39.497Z,2.70
2022-08-26T12:00:54.760Z,2.80
2022-08-26T12:05:58.192Z,2.72
2022-08-26T12:11:05.802Z,2.65
2022-08-26T12:16:09.076Z,3.10
2022-08-26T12:21:21.506Z,2.88
2022-08-26T12:26:30.447Z,3.33
2022-08-26T12:31:41.339Z,3.33
2022-08-26T12:36:52.047Z,3.27
2022-08-26T12:41:55.994Z,3.75
2022-08-26T12:47:04.203Z,3.47
2022-08-26T12:52:19.331Z,3.67
2022-08-26T12:57:30.647Z,3.38
2022-08-26T13:02:37.581Z,3.00
2022-08-26T13:07:39.749Z,2.88
2022-08-26T13:12:41.893Z,2.95
2022-08-26T13:17:44.065Z,3.28
2022-08-26T13:27:55.966Z,3.20
2022-08-26T13:33:00.411Z,2.88
2022-08-26T13:38:04.567Z,2.90
2022-08-26T13:43:10.392Z,2.38
2022-08-26T13:48:12.598Z,2.40
2022-08-26T13:53:16.652Z,2.22
2022-08-26T13:58:18.814Z,3.00
2022-08-26T14:03:21.267Z,2.83
2022-08-26T14:13:25.760Z,2.08
2022-08-26T14:18:35.499Z,2.30
2022-08-26T14:23:40.617Z,1.38
2022-08-26T14:28:42.793Z,1.90
2022-08-26T14:33:45.318Z,1.88
2022-08-26T14:43:54.075Z,2.00
2022-08-26T14:49:01.047Z,1.95
2022-08-26T14:54:04.333Z,1.80
2022-08-26T14:59:06.591Z,2.58
2022-08-26T15:04:08.787Z,1.90
2022-08-26T15:09:11.409Z,1.88
2022-08-26T15:14:18.932Z,1.75
2022-08-26T15:19:23.828Z,1.90
2022-08-26T15:24:26.811Z,1.90
2022-08-26T15:29:29.003Z,2.65
2022-08-26T15:34:31.394Z,2.70
2022-08-26T15:39:34.423Z,2.97
2022-08-26T15:44:36.683Z,2.25
2022-08-26T15:49:40.192Z,2.45
2022-08-26T15:54:42.376Z,2.25
2022-08-26T15:59:45.587Z,2.60
2022-08-26T16:04:47.763Z,2.50
2022-08-26T16:09:52.028Z,2.65
2022-08-26T16:14:56.397Z,2.72
2022-08-26T16:19:58.675Z,2.50
2022-08-26T16:25:00.839Z,2.67
2022-08-26T16:30:06.963Z,2.45
2022-08-26T16:35:09.167Z,2.38
2022-08-26T16:40:11.611Z,2.35
2022-08-26T16:45:14.100Z,1.90
2022-08-26T16:50:18.562Z,1.95
2022-08-26T16:55:22.394Z,3.00
2022-08-26T17:00:27.671Z,2.10
2022-08-26T17:05:29.989Z,2.17
2022-08-26T17:10:32.909Z,1.40
2022-08-26T17:15:35.230Z,1.60
2022-08-26T17:20:37.507Z,1.52
2022-08-26T17:25:40.268Z,1.50
2022-08-26T17:30:42.805Z,1.20
2022-08-26T17:35:45.054Z,1.33
2022-08-26T17:40:47.403Z,1.50
2022-08-26T17:45:49.789Z,1.67
2022-08-26T17:50:52.464Z,1.52
2022-08-26T17:55:54.653Z,1.30
2022-08-26T18:00:56.808Z,1.77
2022-08-26T18:05:59.016Z,1.30
2022-08-26T18:11:01.228Z,1.33
2022-08-26T18:16:06.488Z,1.13
2022-08-26T18:21:15.959Z,1.08
2022-08-26T18:26:26.750Z,1.52
2022-08-26T18:31:29.994Z,1.10
2022-08-26T18:36:36.855Z,1.00
2022-08-26T18:41:51.233Z,1.08
2022-08-26T18:46:53.463Z,1.02
2022-08-26T18:51:55.620Z,1.02
2022-08-26T18:56:57.911Z,0.82
2022-08-26T19:02:00.251Z,1.00
2022-08-26T19:07:02.677Z,1.02
2022-08-26T19:12:05.369Z,1.20
2022-08-26T19:17:07.896Z,1.55
2022-08-26T19:22:10.094Z,1.80
2022-08-26T19:27:14.871Z,1.20
2022-08-26T19:32:17.286Z,1.13
2022-08-26T19:37:21.408Z,1.30
2022-08-26T19:42:23.561Z,1.30
2022-08-26T19:47:25.801Z,1.70
2022-08-26T19:52:30.174Z,1.47
2022-08-26T19:57:33.520Z,1.17
2022-08-26T20:02:35.812Z,1.40
2022-08-26T20:07:38.096Z,1.63
2022-08-26T20:12:41.153Z,1.27
2022-08-26T20:22:45.276Z,1.40
2022-08-26T20:27:47.686Z,1.30
2022-08-26T20:32:49.864Z,1.45
2022-08-26T20:37:51.989Z,1.30
2022-08-26T20:42:54.231Z,1.40
2022-08-26T20:47:56.443Z,1.37
2022-08-26T20:52:59.161Z,1.50
2022-08-26T20:58:01.412Z,1.65
2022-08-26T21:03:03.647Z,1.52
2022-08-26T21:08:05.877Z,1.30
2022-08-26T21:13:08.261Z,1.50
2022-08-26T21:18:11.523Z,1.35
2022-08-26T21:23:13.917Z,1.40
2022-08-26T21:28:16.351Z,1.20
2022-08-26T21:33:18.591Z,1.20
2022-08-26T21:38:21.691Z,1.33
2022-08-26T21:43:35.220Z,1.23
2022-08-26T21:48:39.171Z,1.20
2022-08-26T21:53:41.381Z,1.05
2022-08-26T21:58:43.657Z,0.85
2022-08-26T22:03:47.243Z,1.08
2022-08-26T22:08:50.437Z,1.13
2022-08-26T22:13:52.733Z,1.23
2022-08-26T22:18:54.931Z,1.40
2022-08-26T22:23:58.665Z,1.20
2022-08-26T22:29:02.017Z,1.30
2022-08-26T22:34:09.220Z,1.40
2022-08-26T22:39:13.178Z,1.17
2022-08-26T22:44:16.894Z,1.92
2022-08-26T22:49:19.066Z,1.52
2022-08-26T22:54:21.235Z,1.30
2022-08-26T22:59:23.371Z,1.17
2022-08-26T23:04:25.574Z,1.23
2022-08-26T23:09:27.692Z,1.13
2022-08-26T23:14:32.091Z,1.10
2022-08-26T23:19:34.261Z,1.25
2022-08-26T23:24:36.388Z,1.30
2022-08-26T23:29:38.545Z,1.20
2022-08-26T23:34:40.698Z,1.20
2022-08-26T23:39:43.620Z,1.40
2022-08-26T23:44:45.827Z,1.20
2022-08-26T23:49:47.972Z,1.20
2022-08-26T23:54:50.345Z,1.30
2022-08-26T23:59:52.856Z,1.00
